sensor_id;sensor_type;location;lat;lon;timestamp;pressure;altitude;pressure_sealevel;temperature;humidity
8653;BME280;4364;52.426;9.424;2023-01-25T00:00:45;103299.16;;;-0.15;85.56
8653;BME280;4364;52.426;9.424;2023-01-25T00:03:11;103296.34;;;-0.13;85.67
8653;BME280;4364;52.426;9.424;2023-01-25T00:05:38;103285.47;;;-0.12;85.09
8653;BME280;4364;52.426;9.424;2023-01-25T00:08:04;103289.84;;;-0.21;84.79
8653;BME280;4364;52.426;9.424;2023-01-25T00:10:31;103287.59;;;-0.15;84.30
8653;BME280;4364;52.426;9.424;2023-01-25T00:12:58;103273.25;;;-0.24;84.74
8653;BME280;4364;52.426;9.424;2023-01-25T00:15:24;103267.75;;;-0.23;85.04
8653;BME280;4364;52.426;9.424;2023-01-25T00:17:51;103263.22;;;-0.12;84.72
8653;BME280;4364;52.426;9.424;2023-01-25T00:20:18;103254.94;;;-0.19;84.35
8653;BME280;4364;52.426;9.424;2023-01-25T00:22:44;103257.06;;;-0.23;84.50
8653;BME280;4364;52.426;9.424;2023-01-25T00:25:11;103258.03;;;-0.24;84.74
8653;BME280;4364;52.426;9.424;2023-01-25T00:27:37;103250.72;;;-0.22;84.57
8653;BME280;4364;52.426;9.424;2023-01-25T00:30:04;103260.00;;;-0.26;85.01
8653;BME280;4364;52.426;9.424;2023-01-25T00:32:36;103248.19;;;-0.23;85.20
8653;BME280;4364;52.426;9.424;2023-01-25T00:35:10;103246.22;;;-0.21;85.17
8653;BME280;4364;52.426;9.424;2023-01-25T00:37:46;103246.34;;;-0.23;85.12
8653;BME280;4364;52.426;9.424;2023-01-25T00:40:16;103246.34;;;-0.23;85.25
8653;BME280;4364;52.426;9.424;2023-01-25T00:42:43;103245.06;;;-0.19;84.48
8653;BME280;4364;52.426;9.424;2023-01-25T00:45:10;103238.75;;;-0.17;84.94
8653;BME280;4364;52.426;9.424;2023-01-25T00:47:37;103240.72;;;-0.20;84.92
8653;BME280;4364;52.426;9.424;2023-01-25T00:50:05;103242.25;;;-0.17;85.17
8653;BME280;4364;52.426;9.424;2023-01-25T00:52:33;103239.03;;;-0.11;85.06
8653;BME280;4364;52.426;9.424;2023-01-25T00:54:59;103237.19;;;-0.10;85.38
8653;BME280;4364;52.426;9.424;2023-01-25T00:57:26;103231.81;;;-0.10;84.93
8653;BME280;4364;52.426;9.424;2023-01-25T00:59:53;103227.50;;;-0.11;85.07
8653;BME280;4364;52.426;9.424;2023-01-25T01:02:20;103230.44;;;-0.14;84.68
8653;BME280;4364;52.426;9.424;2023-01-25T01:04:47;103231.69;;;-0.09;84.87
8653;BME280;4364;52.426;9.424;2023-01-25T01:07:14;103231.41;;;-0.15;85.13
8653;BME280;4364;52.426;9.424;2023-01-25T01:09:41;103227.91;;;-0.16;84.99
8653;BME280;4364;52.426;9.424;2023-01-25T01:12:07;103230.31;;;-0.13;85.28
8653;BME280;4364;52.426;9.424;2023-01-25T01:14:34;103232.25;;;-0.05;85.31
8653;BME280;4364;52.426;9.424;2023-01-25T01:17:01;103232.84;;;-0.11;85.31
8653;BME280;4364;52.426;9.424;2023-01-25T01:19:28;103233.13;;;-0.14;85.70
8653;BME280;4364;52.426;9.424;2023-01-25T01:21:54;103221.28;;;-0.12;85.79
8653;BME280;4364;52.426;9.424;2023-01-25T01:24:21;103237.91;;;-0.08;85.74
8653;BME280;4364;52.426;9.424;2023-01-25T01:26:48;103238.03;;;-0.10;86.01
8653;BME280;4364;52.426;9.424;2023-01-25T01:29:15;103232.56;;;-0.08;85.75
8653;BME280;4364;52.426;9.424;2023-01-25T01:31:41;103231.00;;;-0.11;85.72
8653;BME280;4364;52.426;9.424;2023-01-25T01:34:14;103230.44;;;-0.05;85.74
8653;BME280;4364;52.426;9.424;2023-01-25T01:36:41;103226.75;;;-0.04;85.25
8653;BME280;4364;52.426;9.424;2023-01-25T01:39:08;103231.41;;;-0.06;85.87
8653;BME280;4364;52.426;9.424;2023-01-25T01:41:35;103224.41;;;-0.16;86.10
8653;BME280;4364;52.426;9.424;2023-01-25T01:44:05;103213.81;;;-0.08;85.92
8653;BME280;4364;52.426;9.424;2023-01-25T01:46:35;103213.94;;;0.00;85.62
8653;BME280;4364;52.426;9.424;2023-01-25T01:49:13;103212.84;;;-0.17;86.14
8653;BME280;4364;52.426;9.424;2023-01-25T01:51:43;103211.56;;;-0.13;86.17
8653;BME280;4364;52.426;9.424;2023-01-25T01:57:14;103195.81;;;-0.16;86.85
8653;BME280;4364;52.426;9.424;2023-01-25T01:59:43;103188.75;;;-0.07;86.62
8653;BME280;4364;52.426;9.424;2023-01-25T02:02:12;103190.72;;;-0.09;86.15
8653;BME280;4364;52.426;9.424;2023-01-25T02:04:41;103192.03;;;-0.13;86.59
8653;BME280;4364;52.426;9.424;2023-01-25T02:07:33;103189.91;;;-0.10;86.86
8653;BME280;4364;52.426;9.424;2023-01-25T02:10:03;103186.47;;;-0.02;85.94
8653;BME280;4364;52.426;9.424;2023-01-25T02:12:30;103196.38;;;-0.12;86.60
8653;BME280;4364;52.426;9.424;2023-01-25T02:14:58;103188.50;;;-0.24;87.43
8653;BME280;4364;52.426;9.424;2023-01-25T02:17:28;103188.63;;;-0.25;87.73
8653;BME280;4364;52.426;9.424;2023-01-25T02:20:10;103187.25;;;-0.20;87.09
8653;BME280;4364;52.426;9.424;2023-01-25T02:22:55;103198.50;;;-0.26;87.41
8653;BME280;4364;52.426;9.424;2023-01-25T02:25:24;103191.59;;;-0.19;87.18
8653;BME280;4364;52.426;9.424;2023-01-25T02:27:55;103199.78;;;-0.20;87.81
8653;BME280;4364;52.426;9.424;2023-01-25T02:30:25;103199.34;;;-0.25;87.73
8653;BME280;4364;52.426;9.424;2023-01-25T02:32:51;103187.94;;;-0.27;88.30
8653;BME280;4364;52.426;9.424;2023-01-25T02:35:21;103189.16;;;-0.02;87.86
8653;BME280;4364;52.426;9.424;2023-01-25T02:37:49;103190.34;;;-0.24;87.52
8653;BME280;4364;52.426;9.424;2023-01-25T02:40:17;103185.00;;;-0.24;88.24
8653;BME280;4364;52.426;9.424;2023-01-25T02:42:45;103178.94;;;-0.26;87.98
8653;BME280;4364;52.426;9.424;2023-01-25T02:45:15;103174.56;;;-0.17;87.65
8653;BME280;4364;52.426;9.424;2023-01-25T02:47:44;103173.88;;;-0.20;87.33
8653;BME280;4364;52.426;9.424;2023-01-25T02:50:10;103165.75;;;-0.38;88.14
8653;BME280;4364;52.426;9.424;2023-01-25T02:52:40;103166.44;;;-0.35;88.51
8653;BME280;4364;52.426;9.424;2023-01-25T02:55:07;103167.44;;;-0.36;89.10
8653;BME280;4364;52.426;9.424;2023-01-25T02:57:35;103160.94;;;-0.34;88.21
8653;BME280;4364;52.426;9.424;2023-01-25T03:00:03;103152.38;;;-0.38;88.85
8653;BME280;4364;52.426;9.424;2023-01-25T03:02:30;103157.72;;;-0.38;88.61
8653;BME280;4364;52.426;9.424;2023-01-25T03:04:57;103146.44;;;-0.31;88.77
8653;BME280;4364;52.426;9.424;2023-01-25T03:07:24;103146.88;;;-0.36;88.89
8653;BME280;4364;52.426;9.424;2023-01-25T03:09:50;103152.38;;;-0.38;89.05
8653;BME280;4364;52.426;9.424;2023-01-25T03:12:17;103143.91;;;-0.23;87.92
8653;BME280;4364;52.426;9.424;2023-01-25T03:14:44;103143.38;;;-0.36;88.42
8653;BME280;4364;52.426;9.424;2023-01-25T03:17:11;103126.06;;;-0.42;88.53
8653;BME280;4364;52.426;9.424;2023-01-25T03:19:38;103137.91;;;-0.45;89.36
8653;BME280;4364;52.426;9.424;2023-01-25T03:22:05;103129.28;;;-0.39;89.11
8653;BME280;4364;52.426;9.424;2023-01-25T03:24:32;103124.19;;;-0.32;89.17
8653;BME280;4364;52.426;9.424;2023-01-25T03:26:59;103123.38;;;-0.42;89.25
8653;BME280;4364;52.426;9.424;2023-01-25T03:29:43;103118.78;;;-0.50;90.06
8653;BME280;4364;52.426;9.424;2023-01-25T03:32:18;103122.28;;;-0.40;89.83
8653;BME280;4364;52.426;9.424;2023-01-25T03:34:44;103111.88;;;-0.52;90.53
8653;BME280;4364;52.426;9.424;2023-01-25T03:37:12;103105.97;;;-0.56;90.52
8653;BME280;4364;52.426;9.424;2023-01-25T03:39:40;103110.22;;;-0.53;91.26
8653;BME280;4364;52.426;9.424;2023-01-25T03:42:07;103109.31;;;-0.44;91.26
8653;BME280;4364;52.426;9.424;2023-01-25T03:44:34;103106.78;;;-0.46;91.58
8653;BME280;4364;52.426;9.424;2023-01-25T03:47:01;103108.22;;;-0.42;91.12
8653;BME280;4364;52.426;9.424;2023-01-25T03:49:28;103109.72;;;-0.39;91.18
8653;BME280;4364;52.426;9.424;2023-01-25T03:51:56;103100.47;;;-0.45;91.83
8653;BME280;4364;52.426;9.424;2023-01-25T03:54:31;103102.88;;;-0.42;92.12
8653;BME280;4364;52.426;9.424;2023-01-25T03:56:58;103100.75;;;-0.38;92.46
8653;BME280;4364;52.426;9.424;2023-01-25T03:59:26;103103.41;;;-0.38;92.37
8653;BME280;4364;52.426;9.424;2023-01-25T04:01:54;103102.13;;;-0.34;92.32
8653;BME280;4364;52.426;9.424;2023-01-25T04:04:21;103101.97;;;-0.32;92.58
8653;BME280;4364;52.426;9.424;2023-01-25T04:06:48;103100.31;;;-0.33;92.05
8653;BME280;4364;52.426;9.424;2023-01-25T04:09:15;103095.94;;;-0.34;92.78
8653;BME280;4364;52.426;9.424;2023-01-25T04:11:48;103085.38;;;-0.36;92.72
8653;BME280;4364;52.426;9.424;2023-01-25T04:14:16;103083.94;;;-0.30;92.83
8653;BME280;4364;52.426;9.424;2023-01-25T04:17:00;103080.00;;;-0.26;92.21
8653;BME280;4364;52.426;9.424;2023-01-25T04:19:37;103071.59;;;-0.31;92.26
8653;BME280;4364;52.426;9.424;2023-01-25T04:22:07;103076.53;;;-0.36;92.61
8653;BME280;4364;52.426;9.424;2023-01-25T04:24:36;103071.03;;;-0.35;92.72
8653;BME280;4364;52.426;9.424;2023-01-25T04:27:04;103086.19;;;-0.26;92.64
8653;BME280;4364;52.426;9.424;2023-01-25T04:29:36;103070.16;;;-0.26;92.34
8653;BME280;4364;52.426;9.424;2023-01-25T04:32:09;103077.47;;;-0.28;93.01
8653;BME280;4364;52.426;9.424;2023-01-25T04:34:36;103075.22;;;-0.23;92.47
8653;BME280;4364;52.426;9.424;2023-01-25T04:37:06;103068.63;;;-0.28;93.13
8653;BME280;4364;52.426;9.424;2023-01-25T04:39:42;103066.81;;;-0.38;93.57
8653;BME280;4364;52.426;9.424;2023-01-25T04:42:08;103061.19;;;-0.34;93.57
8653;BME280;4364;52.426;9.424;2023-01-25T04:44:35;103059.47;;;-0.35;93.79
8653;BME280;4364;52.426;9.424;2023-01-25T04:47:01;103058.50;;;-0.34;94.22
8653;BME280;4364;52.426;9.424;2023-01-25T04:49:29;103059.06;;;-0.31;94.23
8653;BME280;4364;52.426;9.424;2023-01-25T04:51:55;103051.31;;;-0.34;94.61
8653;BME280;4364;52.426;9.424;2023-01-25T04:54:22;103051.59;;;-0.37;94.86
8653;BME280;4364;52.426;9.424;2023-01-25T04:56:49;103050.47;;;-0.34;94.49
8653;BME280;4364;52.426;9.424;2023-01-25T04:59:16;103046.22;;;-0.27;94.98
8653;BME280;4364;52.426;9.424;2023-01-25T05:01:42;103051.84;;;-0.30;94.69
8653;BME280;4364;52.426;9.424;2023-01-25T05:04:09;103054.00;;;-0.34;94.73
8653;BME280;4364;52.426;9.424;2023-01-25T05:06:39;103057.06;;;-0.29;94.83
8653;BME280;4364;52.426;9.424;2023-01-25T05:09:06;103061.44;;;-0.28;94.97
8653;BME280;4364;52.426;9.424;2023-01-25T05:11:33;103054.13;;;-0.35;95.29
8653;BME280;4364;52.426;9.424;2023-01-25T05:14:04;103058.38;;;-0.33;95.28
8653;BME280;4364;52.426;9.424;2023-01-25T05:16:32;103048.91;;;-0.27;95.33
8653;BME280;4364;52.426;9.424;2023-01-25T05:19:00;103052.75;;;-0.40;95.41
8653;BME280;4364;52.426;9.424;2023-01-25T05:21:41;103053.06;;;-0.52;96.21
8653;BME280;4364;52.426;9.424;2023-01-25T05:24:30;103050.53;;;-0.54;96.38
8653;BME280;4364;52.426;9.424;2023-01-25T05:27:01;103040.84;;;-0.55;96.72
8653;BME280;4364;52.426;9.424;2023-01-25T05:29:55;103041.94;;;-0.48;96.75
8653;BME280;4364;52.426;9.424;2023-01-25T05:32:37;103040.63;;;-0.34;95.93
8653;BME280;4364;52.426;9.424;2023-01-25T05:35:05;103040.97;;;-0.47;96.21
8653;BME280;4364;52.426;9.424;2023-01-25T05:37:32;103042.66;;;-0.56;96.71
8653;BME280;4364;52.426;9.424;2023-01-25T05:40:03;103033.13;;;-0.58;97.28
8653;BME280;4364;52.426;9.424;2023-01-25T05:42:34;103030.56;;;-0.50;97.24
8653;BME280;4364;52.426;9.424;2023-01-25T05:45:02;103032.50;;;-0.42;97.01
8653;BME280;4364;52.426;9.424;2023-01-25T05:47:29;103036.06;;;-0.51;96.57
8653;BME280;4364;52.426;9.424;2023-01-25T05:49:56;103034.75;;;-0.47;97.15
8653;BME280;4364;52.426;9.424;2023-01-25T05:52:45;103035.44;;;-0.45;97.00
8653;BME280;4364;52.426;9.424;2023-01-25T05:55:11;103025.78;;;-0.46;96.94
8653;BME280;4364;52.426;9.424;2023-01-25T05:57:41;103024.94;;;-0.47;97.45
8653;BME280;4364;52.426;9.424;2023-01-25T06:00:09;103023.91;;;-0.36;97.53
8653;BME280;4364;52.426;9.424;2023-01-25T06:02:38;103026.56;;;-0.36;97.00
8653;BME280;4364;52.426;9.424;2023-01-25T06:05:07;103021.50;;;-0.39;97.35
8653;BME280;4364;52.426;9.424;2023-01-25T06:07:35;103019.66;;;-0.39;97.56
8653;BME280;4364;52.426;9.424;2023-01-25T06:10:03;103016.69;;;-0.35;97.65
8653;BME280;4364;52.426;9.424;2023-01-25T06:12:30;103006.31;;;-0.39;97.61
8653;BME280;4364;52.426;9.424;2023-01-25T06:14:57;103005.47;;;-0.39;97.73
8653;BME280;4364;52.426;9.424;2023-01-25T06:17:24;103014.19;;;-0.37;97.96
8653;BME280;4364;52.426;9.424;2023-01-25T06:19:57;103011.81;;;-0.40;98.30
8653;BME280;4364;52.426;9.424;2023-01-25T06:22:36;103006.03;;;-0.45;98.14
8653;BME280;4364;52.426;9.424;2023-01-25T06:25:03;103012.13;;;-0.43;98.74
8653;BME280;4364;52.426;9.424;2023-01-25T06:27:30;103003.34;;;-0.35;98.66
8653;BME280;4364;52.426;9.424;2023-01-25T06:29:56;103011.91;;;-0.32;98.83
8653;BME280;4364;52.426;9.424;2023-01-25T06:32:23;103006.41;;;-0.30;98.59
8653;BME280;4364;52.426;9.424;2023-01-25T06:34:51;102998.97;;;-0.27;98.72
8653;BME280;4364;52.426;9.424;2023-01-25T06:37:21;103003.00;;;-0.23;98.66
8653;BME280;4364;52.426;9.424;2023-01-25T06:39:48;103006.50;;;-0.22;98.13
8653;BME280;4364;52.426;9.424;2023-01-25T06:42:15;103009.31;;;-0.24;98.33
8653;BME280;4364;52.426;9.424;2023-01-25T06:44:41;103010.19;;;-0.23;97.85
8653;BME280;4364;52.426;9.424;2023-01-25T06:47:08;103007.13;;;-0.28;98.47
8653;BME280;4364;52.426;9.424;2023-01-25T06:49:35;103012.47;;;-0.28;98.39
8653;BME280;4364;52.426;9.424;2023-01-25T06:52:02;103007.13;;;-0.28;98.65
8653;BME280;4364;52.426;9.424;2023-01-25T06:54:28;103005.00;;;-0.25;98.99
8653;BME280;4364;52.426;9.424;2023-01-25T06:56:55;103010.34;;;-0.25;98.96
8653;BME280;4364;52.426;9.424;2023-01-25T06:59:21;103006.81;;;-0.25;99.04
8653;BME280;4364;52.426;9.424;2023-01-25T07:01:47;103014.69;;;-0.24;98.65
8653;BME280;4364;52.426;9.424;2023-01-25T07:04:15;103001.44;;;-0.25;98.61
8653;BME280;4364;52.426;9.424;2023-01-25T07:06:42;103011.31;;;-0.26;98.62
8653;BME280;4364;52.426;9.424;2023-01-25T07:09:10;102996.31;;;-0.36;98.41
8653;BME280;4364;52.426;9.424;2023-01-25T07:11:38;102999.03;;;-0.19;98.95
8653;BME280;4364;52.426;9.424;2023-01-25T07:14:04;102994.66;;;-0.47;98.89
8653;BME280;4364;52.426;9.424;2023-01-25T07:16:32;102993.28;;;-0.51;99.50
8653;BME280;4364;52.426;9.424;2023-01-25T07:19:03;102996.22;;;-0.45;99.12
8653;BME280;4364;52.426;9.424;2023-01-25T07:21:30;102997.75;;;-0.42;99.10
8653;BME280;4364;52.426;9.424;2023-01-25T07:23:59;103006.94;;;-0.54;99.61
8653;BME280;4364;52.426;9.424;2023-01-25T07:26:28;103008.06;;;-0.57;99.82
8653;BME280;4364;52.426;9.424;2023-01-25T07:28:56;103009.72;;;-0.46;99.75
8653;BME280;4364;52.426;9.424;2023-01-25T07:31:24;103008.44;;;-0.42;99.72
8653;BME280;4364;52.426;9.424;2023-01-25T07:33:54;103010.56;;;-0.46;99.97
8653;BME280;4364;52.426;9.424;2023-01-25T07:36:21;103007.31;;;-0.40;99.86
8653;BME280;4364;52.426;9.424;2023-01-25T07:38:52;103003.63;;;-0.39;99.74
8653;BME280;4364;52.426;9.424;2023-01-25T07:41:19;102998.28;;;-0.39;99.54
8653;BME280;4364;52.426;9.424;2023-01-25T07:43:46;102997.34;;;-0.47;99.75
8653;BME280;4364;52.426;9.424;2023-01-25T07:46:19;102989.19;;;-0.46;99.75
8653;BME280;4364;52.426;9.424;2023-01-25T07:48:47;102990.59;;;-0.42;100.00
8653;BME280;4364;52.426;9.424;2023-01-25T07:51:15;102984.91;;;-0.39;99.83
8653;BME280;4364;52.426;9.424;2023-01-25T07:53:53;102986.34;;;-0.44;99.78
8653;BME280;4364;52.426;9.424;2023-01-25T07:56:25;102989.03;;;-0.44;100.00
8653;BME280;4364;52.426;9.424;2023-01-25T07:58:54;102982.09;;;-0.37;100.00
8653;BME280;4364;52.426;9.424;2023-01-25T08:01:22;102983.50;;;-0.33;100.00
8653;BME280;4364;52.426;9.424;2023-01-25T08:03:50;102983.94;;;-0.38;100.00
8653;BME280;4364;52.426;9.424;2023-01-25T08:06:17;102979.31;;;-0.45;100.00
8653;BME280;4364;52.426;9.424;2023-01-25T08:08:48;102982.41;;;-0.40;100.00
8653;BME280;4364;52.426;9.424;2023-01-25T08:11:18;102978.72;;;-0.39;100.00
8653;BME280;4364;52.426;9.424;2023-01-25T08:13:46;102985.78;;;-0.38;100.00
8653;BME280;4364;52.426;9.424;2023-01-25T08:16:13;102984.66;;;-0.45;100.00
8653;BME280;4364;52.426;9.424;2023-01-25T08:18:39;102976.81;;;-0.47;100.00
8653;BME280;4364;52.426;9.424;2023-01-25T08:21:06;102972.59;;;-0.49;100.00
8653;BME280;4364;52.426;9.424;2023-01-25T08:23:33;102972.31;;;-0.46;100.00
8653;BME280;4364;52.426;9.424;2023-01-25T08:26:04;102971.41;;;-0.37;100.00
8653;BME280;4364;52.426;9.424;2023-01-25T08:28:31;102974.41;;;-0.40;100.00
8653;BME280;4364;52.426;9.424;2023-01-25T08:31:24;102980.28;;;-0.36;100.00
8653;BME280;4364;52.426;9.424;2023-01-25T08:33:52;102978.19;;;-0.43;100.00
8653;BME280;4364;52.426;9.424;2023-01-25T08:36:19;102962.28;;;-0.44;100.00
8653;BME280;4364;52.426;9.424;2023-01-25T08:38:46;102964.94;;;-0.34;100.00
8653;BME280;4364;52.426;9.424;2023-01-25T08:41:16;102959.69;;;-0.26;100.00
8653;BME280;4364;52.426;9.424;2023-01-25T08:43:44;102957.28;;;-0.29;100.00
8653;BME280;4364;52.426;9.424;2023-01-25T08:46:12;102961.75;;;-0.20;100.00
8653;BME280;4364;52.426;9.424;2023-01-25T08:48:39;102952.19;;;-0.23;100.00
8653;BME280;4364;52.426;9.424;2023-01-25T08:51:14;102947.81;;;-0.24;100.00
8653;BME280;4364;52.426;9.424;2023-01-25T08:53:41;102942.31;;;-0.22;100.00
8653;BME280;4364;52.426;9.424;2023-01-25T08:56:10;102948.22;;;-0.19;100.00
8653;BME280;4364;52.426;9.424;2023-01-25T08:58:40;102955.69;;;-0.40;100.00
8653;BME280;4364;52.426;9.424;2023-01-25T09:01:08;102955.94;;;-0.33;100.00
8653;BME280;4364;52.426;9.424;2023-01-25T09:03:36;102946.66;;;-0.39;100.00
8653;BME280;4364;52.426;9.424;2023-01-25T09:06:04;102939.63;;;-0.40;100.00
8653;BME280;4364;52.426;9.424;2023-01-25T09:08:31;102941.16;;;-0.38;100.00
8653;BME280;4364;52.426;9.424;2023-01-25T09:11:05;102938.19;;;-0.34;100.00
8653;BME280;4364;52.426;9.424;2023-01-25T09:13:33;102932.75;;;-0.43;100.00
8653;BME280;4364;52.426;9.424;2023-01-25T09:16:05;102925.84;;;-0.45;100.00
8653;BME280;4364;52.426;9.424;2023-01-25T09:18:34;102914.22;;;-0.54;100.00
8653;BME280;4364;52.426;9.424;2023-01-25T09:21:13;102910.81;;;-0.46;100.00
8653;BME280;4364;52.426;9.424;2023-01-25T09:23:40;102912.59;;;-0.37;100.00
8653;BME280;4364;52.426;9.424;2023-01-25T09:26:23;102909.03;;;-0.28;100.00
8653;BME280;4364;52.426;9.424;2023-01-25T09:28:51;102907.72;;;-0.24;100.00
8653;BME280;4364;52.426;9.424;2023-01-25T09:31:19;102911.94;;;-0.21;100.00
8653;BME280;4364;52.426;9.424;2023-01-25T09:34:07;102906.19;;;-0.26;100.00
8653;BME280;4364;52.426;9.424;2023-01-25T09:36:35;102897.63;;;-0.30;100.00
8653;BME280;4364;52.426;9.424;2023-01-25T09:39:01;102894.19;;;-0.22;100.00
8653;BME280;4364;52.426;9.424;2023-01-25T09:41:54;102890.31;;;-0.28;100.00
8653;BME280;4364;52.426;9.424;2023-01-25T09:47:53;102897.78;;;-0.31;100.00
8653;BME280;4364;52.426;9.424;2023-01-25T09:50:41;102891.44;;;-0.30;100.00
8653;BME280;4364;52.426;9.424;2023-01-25T09:53:28;102893.06;;;-0.20;100.00
8653;BME280;4364;52.426;9.424;2023-01-25T09:56:00;102893.31;;;-0.13;100.00
8653;BME280;4364;52.426;9.424;2023-01-25T09:58:32;102892.81;;;-0.26;100.00
8653;BME280;4364;52.426;9.424;2023-01-25T10:01:19;102875.97;;;-0.27;100.00
8653;BME280;4364;52.426;9.424;2023-01-25T10:04:13;102876.00;;;-0.36;100.00
8653;BME280;4364;52.426;9.424;2023-01-25T10:06:43;102868.44;;;-0.41;100.00
8653;BME280;4364;52.426;9.424;2023-01-25T10:09:40;102877.59;;;-0.44;100.00
8653;BME280;4364;52.426;9.424;2023-01-25T10:12:15;102870.81;;;-0.38;100.00
8653;BME280;4364;52.426;9.424;2023-01-25T10:14:44;102870.81;;;-0.38;100.00
8653;BME280;4364;52.426;9.424;2023-01-25T10:17:37;102872.63;;;-0.39;100.00
8653;BME280;4364;52.426;9.424;2023-01-25T10:25:56;102850.31;;;-0.47;100.00
8653;BME280;4364;52.426;9.424;2023-01-25T10:28:37;102858.19;;;-0.46;100.00
8653;BME280;4364;52.426;9.424;2023-01-25T10:31:16;102844.16;;;-0.48;100.00
8653;BME280;4364;52.426;9.424;2023-01-25T10:33:45;102841.13;;;-0.35;100.00
8653;BME280;4364;52.426;9.424;2023-01-25T10:36:17;102842.44;;;-0.49;100.00
8653;BME280;4364;52.426;9.424;2023-01-25T10:38:47;102845.91;;;-0.39;100.00
8653;BME280;4364;52.426;9.424;2023-01-25T10:41:28;102842.44;;;-0.49;100.00
8653;BME280;4364;52.426;9.424;2023-01-25T10:43:58;102832.69;;;-0.58;100.00
8653;BME280;4364;52.426;9.424;2023-01-25T10:46:51;102821.59;;;-0.45;100.00
8653;BME280;4364;52.426;9.424;2023-01-25T10:49:48;102818.41;;;-0.49;100.00
8653;BME280;4364;52.426;9.424;2023-01-25T10:52:18;102813.44;;;-0.44;100.00
8653;BME280;4364;52.426;9.424;2023-01-25T10:54:47;102807.78;;;-0.41;100.00
8653;BME280;4364;52.426;9.424;2023-01-25T10:57:20;102805.88;;;-0.30;100.00
8653;BME280;4364;52.426;9.424;2023-01-25T10:59:50;102803.91;;;-0.28;100.00
8653;BME280;4364;52.426;9.424;2023-01-25T11:02:43;102801.38;;;-0.30;100.00
8653;BME280;4364;52.426;9.424;2023-01-25T11:05:33;102792.06;;;-0.26;100.00
8653;BME280;4364;52.426;9.424;2023-01-25T11:08:32;102782.75;;;-0.22;100.00
8653;BME280;4364;52.426;9.424;2023-01-25T11:10:59;102777.41;;;-0.22;100.00
8653;BME280;4364;52.426;9.424;2023-01-25T11:13:39;102782.75;;;-0.22;100.00
8653;BME280;4364;52.426;9.424;2023-01-25T11:16:19;102783.41;;;-0.20;100.00
8653;BME280;4364;52.426;9.424;2023-01-25T11:18:53;102783.19;;;-0.26;100.00
8653;BME280;4364;52.426;9.424;2023-01-25T11:21:25;102781.06;;;-0.23;100.00
8653;BME280;4364;52.426;9.424;2023-01-25T11:24:03;102773.09;;;-0.14;100.00
8653;BME280;4364;52.426;9.424;2023-01-25T11:26:40;102771.19;;;-0.22;100.00
8653;BME280;4364;52.426;9.424;2023-01-25T11:29:11;102760.50;;;-0.22;100.00
8653;BME280;4364;52.426;9.424;2023-01-25T11:31:38;102754.91;;;-0.29;100.00
8653;BME280;4364;52.426;9.424;2023-01-25T11:34:16;102741.47;;;-0.37;100.00
8653;BME280;4364;52.426;9.424;2023-01-25T11:37:32;102728.91;;;-0.45;100.00
8653;BME280;4364;52.426;9.424;2023-01-25T11:40:57;102727.13;;;-0.36;100.00
8653;BME280;4364;52.426;9.424;2023-01-25T11:48:57;102715.53;;;-0.27;100.00
8653;BME280;4364;52.426;9.424;2023-01-25T11:51:37;102704.28;;;-0.30;100.00
8653;BME280;4364;52.426;9.424;2023-01-25T11:54:48;102699.84;;;-0.22;100.00
8653;BME280;4364;52.426;9.424;2023-01-25T12:11:33;102672.13;;;-0.39;100.00
8653;BME280;4364;52.426;9.424;2023-01-25T12:14:33;102666.25;;;-0.42;100.00
8653;BME280;4364;52.426;9.424;2023-01-25T12:17:17;102660.16;;;-0.52;100.00
8653;BME280;4364;52.426;9.424;2023-01-25T12:20:03;102655.25;;;-0.39;100.00
8653;BME280;4364;52.426;9.424;2023-01-25T12:25:34;102635.50;;;-0.46;100.00
8653;BME280;4364;52.426;9.424;2023-01-25T12:30:59;102614.91;;;-0.28;100.00
8653;BME280;4364;52.426;9.424;2023-01-25T12:33:39;102611.81;;;-0.41;100.00
8653;BME280;4364;52.426;9.424;2023-01-25T12:36:26;102604.56;;;-0.49;100.00
8653;BME280;4364;52.426;9.424;2023-01-25T12:38:57;102599.59;;;-0.44;100.00
8653;BME280;4364;52.426;9.424;2023-01-25T12:44:24;102593.19;;;-0.51;100.00
8653;BME280;4364;52.426;9.424;2023-01-25T12:47:01;102587.53;;;-0.48;100.00
8653;BME280;4364;52.426;9.424;2023-01-25T12:49:41;102572.44;;;-0.57;100.00
8653;BME280;4364;52.426;9.424;2023-01-25T12:52:24;102575.31;;;-0.50;100.00
8653;BME280;4364;52.426;9.424;2023-01-25T12:54:56;102573.88;;;-0.45;100.00
8653;BME280;4364;52.426;9.424;2023-01-25T12:58:00;102559.19;;;-0.41;100.00
8653;BME280;4364;52.426;9.424;2023-01-25T13:00:40;102551.97;;;-0.48;100.00
8653;BME280;4364;52.426;9.424;2023-01-25T13:11:32;102532.91;;;-0.53;100.00
8653;BME280;4364;52.426;9.424;2023-01-25T13:16:53;102532.75;;;-0.44;100.00
8653;BME280;4364;52.426;9.424;2023-01-25T13:22:02;102520.28;;;-0.35;100.00
8653;BME280;4364;52.426;9.424;2023-01-25T13:24:31;102519.34;;;-0.52;100.00
8653;BME280;4364;52.426;9.424;2023-01-25T13:27:03;102518.38;;;-0.51;100.00
8653;BME280;4364;52.426;9.424;2023-01-25T13:31:58;102498.94;;;-0.61;100.00
8653;BME280;4364;52.426;9.424;2023-01-25T13:37:20;102494.25;;;-0.59;100.00
8653;BME280;4364;52.426;9.424;2023-01-25T13:40:00;102494.16;;;-0.49;100.00
8653;BME280;4364;52.426;9.424;2023-01-25T13:42:37;102482.84;;;-0.43;100.00
8653;BME280;4364;52.426;9.424;2023-01-25T13:45:14;102491.31;;;-0.48;100.00
8653;BME280;4364;52.426;9.424;2023-01-25T13:47:58;102471.63;;;-0.47;100.00
8653;BME280;4364;52.426;9.424;2023-01-25T13:50:28;102469.94;;;-0.48;100.00
8653;BME280;4364;52.426;9.424;2023-01-25T13:53:04;102469.94;;;-0.48;100.00
8653;BME280;4364;52.426;9.424;2023-01-25T13:55:40;102467.81;;;-0.36;100.00
8653;BME280;4364;52.426;9.424;2023-01-25T13:58:17;102463.88;;;-0.58;100.00
8653;BME280;4364;52.426;9.424;2023-01-25T14:00:48;102456.97;;;-0.69;100.00
8653;BME280;4364;52.426;9.424;2023-01-25T14:03:16;102460.34;;;-0.67;100.00
8653;BME280;4364;52.426;9.424;2023-01-25T14:05:53;102460.00;;;-0.64;100.00
8653;BME280;4364;52.426;9.424;2023-01-25T14:08:21;102461.06;;;-0.57;100.00
8653;BME280;4364;52.426;9.424;2023-01-25T14:10:51;102459.22;;;-0.56;100.00
8653;BME280;4364;52.426;9.424;2023-01-25T14:13:18;102458.59;;;-0.50;100.00
8653;BME280;4364;52.426;9.424;2023-01-25T14:16:01;102456.22;;;-0.53;100.00
8653;BME280;4364;52.426;9.424;2023-01-25T14:18:31;102466.19;;;-0.63;100.00
8653;BME280;4364;52.426;9.424;2023-01-25T14:23:35;102465.34;;;-0.64;100.00
8653;BME280;4364;52.426;9.424;2023-01-25T14:26:02;102469.19;;;-0.66;100.00
8653;BME280;4364;52.426;9.424;2023-01-25T14:28:29;102476.16;;;-0.73;100.00
8653;BME280;4364;52.426;9.424;2023-01-25T14:30:57;102474.75;;;-0.86;100.00
8653;BME280;4364;52.426;9.424;2023-01-25T14:33:27;102472.22;;;-0.87;100.00